createdAt,value
2022-12-25T00:00:42.428Z,100505.91
2022-12-25T00:03:09.102Z,100502.41
2022-12-25T00:05:39.090Z,100511.09
2022-12-25T00:08:06.960Z,100505.91
2022-12-25T00:10:33.950Z,100517.22
2022-12-25T00:13:00.540Z,100522.44
2022-12-25T00:15:27.187Z,100527.66
2022-12-25T00:17:53.782Z,100524.19
2022-12-25T00:20:20.488Z,100514.59
2022-12-25T00:22:47.058Z,100511.97
2022-12-25T00:25:13.680Z,100515.47
2022-12-25T00:27:40.305Z,100518.94
2022-12-25T00:30:07.940Z,100534.63
2022-12-25T00:32:37.878Z,100536.31
2022-12-25T00:35:05.722Z,100536.34
2022-12-25T00:37:32.503Z,100541.56
2022-12-25T00:39:59.095Z,100553.75
2022-12-25T00:42:25.694Z,100564.22
2022-12-25T00:44:52.401Z,100562.47
2022-12-25T00:47:19.379Z,100562.47
2022-12-25T00:49:46.066Z,100558.97
2022-12-25T00:52:12.684Z,100546.78
2022-12-25T00:54:39.357Z,100562.44
2022-12-25T00:57:07.109Z,100563.28
2022-12-25T00:59:34.968Z,100577.28
2022-12-25T01:02:01.747Z,100578.13
2022-12-25T01:04:28.358Z,100573.78
2022-12-25T01:06:54.957Z,100572.81
2022-12-25T01:09:21.630Z,100577.88
2022-12-25T01:11:48.243Z,100577.94
2022-12-25T01:14:15.156Z,100588.53
2022-12-25T01:16:41.878Z,100592.00
2022-12-25T01:19:11.174Z,100591.13
2022-12-25T01:21:38.102Z,100590.31
2022-12-25T01:24:04.898Z,100589.41
2022-12-25T01:26:31.475Z,100588.59
2022-12-25T01:28:58.058Z,100588.56
2022-12-25T01:31:26.064Z,100590.31
2022-12-25T01:33:52.757Z,100591.19
2022-12-25T01:36:21.029Z,100601.66
2022-12-25T01:38:48.346Z,100590.31
2022-12-25T01:41:17.724Z,100593.81
2022-12-25T01:44:16.558Z,100594.69
2022-12-25T01:46:43.927Z,100597.28
2022-12-25T01:49:14.723Z,100607.59
2022-12-25T01:51:49.913Z,100612.88
2022-12-25T01:54:25.483Z,100607.72
2022-12-25T01:56:55.381Z,100599.91
2022-12-25T01:59:25.071Z,100605.13
2022-12-25T02:01:51.887Z,100590.28
2022-12-25T02:04:26.667Z,100591.19
2022-12-25T02:06:53.480Z,100610.34
2022-12-25T02:09:20.081Z,100599.91
2022-12-25T02:11:47.156Z,100597.25
2022-12-25T02:14:13.829Z,100591.19
2022-12-25T02:16:56.514Z,100597.25
2022-12-25T02:19:34.375Z,100595.50
2022-12-25T02:22:27.824Z,100593.78
2022-12-25T02:25:03.083Z,100604.22
2022-12-25T02:28:03.463Z,100597.22
2022-12-25T02:30:36.480Z,100605.13
2022-12-25T02:33:14.740Z,100598.91
2022-12-25T02:35:46.522Z,100605.84
2022-12-25T02:38:31.977Z,100610.16
2022-12-25T02:41:05.885Z,100612.81
2022-12-25T02:43:38.066Z,100614.56
2022-12-25T02:46:09.259Z,100623.34
2022-12-25T02:48:51.326Z,100626.84
2022-12-25T02:51:21.674Z,100624.13
2022-12-25T02:53:51.708Z,100626.72
2022-12-25T02:56:20.316Z,100628.38
2022-12-25T02:58:49.238Z,100629.31
2022-12-25T03:01:19.869Z,100621.50
2022-12-25T03:03:50.422Z,100627.59
2022-12-25T03:06:19.767Z,100637.25
2022-12-25T03:08:50.595Z,100644.25
2022-12-25T03:11:17.217Z,100639.06
2022-12-25T03:13:48.791Z,100648.66
2022-12-25T03:16:15.631Z,100654.75
2022-12-25T03:18:42.800Z,100664.25
2022-12-25T03:21:09.477Z,100677.25
2022-12-25T03:23:39.360Z,100670.34
2022-12-25T03:26:07.546Z,100659.84
2022-12-25T03:28:34.129Z,100658.13
2022-12-25T03:31:21.947Z,100646.69
2022-12-25T03:34:25.650Z,100663.22
2022-12-25T03:36:58.276Z,100677.22
2022-12-25T03:39:36.283Z,100666.69
2022-12-25T03:42:06.375Z,100680.56
2022-12-25T03:45:12.354Z,100678.81
2022-12-25T03:47:44.721Z,100681.34
2022-12-25T03:50:22.262Z,100690.97
2022-12-25T03:52:51.608Z,100684.81
2022-12-25T03:55:19.737Z,100677.84
2022-12-25T03:57:46.381Z,100683.03
2022-12-25T04:00:13.375Z,100682.19
2022-12-25T04:02:40.112Z,100692.69
2022-12-25T04:05:07.434Z,100695.97
2022-12-25T04:07:34.177Z,100687.41
2022-12-25T04:10:00.778Z,100686.53
2022-12-25T04:12:27.355Z,100680.97
2022-12-25T04:14:54.402Z,100680.44
2022-12-25T04:17:21.036Z,100666.75
2022-12-25T04:19:47.645Z,100677.53
2022-12-25T04:22:14.225Z,100676.63
2022-12-25T04:24:40.804Z,100671.50
2022-12-25T04:27:07.499Z,100673.41
2022-12-25T04:29:34.071Z,100683.91
2022-12-25T04:32:01.083Z,100687.97
2022-12-25T04:34:27.669Z,100692.38
2022-12-25T04:36:54.264Z,100691.50
2022-12-25T04:39:20.999Z,100700.09
2022-12-25T04:41:47.572Z,100687.13
2022-12-25T04:44:14.148Z,100673.34
2022-12-25T04:46:40.881Z,100668.28
2022-12-25T04:49:07.497Z,100659.69
2022-12-25T04:51:34.094Z,100669.06
2022-12-25T04:54:00.774Z,100666.59
2022-12-25T04:56:27.310Z,100675.03
2022-12-25T04:58:53.857Z,100681.31
2022-12-25T05:01:20.560Z,100677.69
2022-12-25T05:03:47.270Z,100691.69
2022-12-25T05:06:14.076Z,100688.91
2022-12-25T05:08:40.695Z,100684.53
2022-12-25T05:11:12.890Z,100700.06
2022-12-25T05:13:40.254Z,100690.97
2022-12-25T05:16:16.735Z,100689.34
2022-12-25T05:18:44.122Z,100700.88
2022-12-25T05:21:12.536Z,100701.38
2022-12-25T05:23:39.506Z,100703.34
2022-12-25T05:26:06.913Z,100708.88
2022-12-25T05:28:36.979Z,100705.34
2022-12-25T05:31:03.633Z,100699.19
2022-12-25T05:33:30.311Z,100697.47
2022-12-25T05:35:56.903Z,100693.94
2022-12-25T05:38:23.611Z,100698.19
2022-12-25T05:40:51.689Z,100697.09
2022-12-25T05:43:18.753Z,100705.59
2022-12-25T05:45:45.670Z,100710.88
2022-12-25T05:48:12.266Z,100710.94
2022-12-25T05:50:39.112Z,100713.38
2022-12-25T05:53:08.518Z,100708.00
2022-12-25T05:55:37.000Z,100719.25
2022-12-25T05:58:05.135Z,100719.38
2022-12-25T06:00:31.819Z,100721.19
2022-12-25T06:02:59.155Z,100726.44
2022-12-25T06:05:26.460Z,100722.91
2022-12-25T06:07:53.061Z,100722.22
2022-12-25T06:10:19.884Z,100734.28
2022-12-25T06:12:46.565Z,100718.56
2022-12-25T06:15:13.150Z,100718.56
2022-12-25T06:17:39.731Z,100713.31
2022-12-25T06:20:07.287Z,100714.06
2022-12-25T06:22:34.469Z,100721.09
2022-12-25T06:25:01.191Z,100715.69
2022-12-25T06:27:27.859Z,100717.25
2022-12-25T06:29:54.473Z,100718.94
2022-12-25T06:32:21.262Z,100731.22
2022-12-25T06:34:47.855Z,100735.53
2022-12-25T06:37:14.425Z,100733.09
2022-12-25T06:39:41.059Z,100743.78
2022-12-25T06:42:07.693Z,100745.38
2022-12-25T06:44:34.288Z,100748.78
2022-12-25T06:47:01.013Z,100747.03
2022-12-25T06:49:27.651Z,100745.97
2022-12-25T06:51:54.248Z,100748.63
2022-12-25T06:54:21.156Z,100759.97
2022-12-25T06:56:47.799Z,100747.81
2022-12-25T06:59:14.665Z,100751.06
2022-12-25T07:01:50.547Z,100759.81
2022-12-25T07:04:25.820Z,100761.59
2022-12-25T07:06:52.839Z,100771.34
2022-12-25T07:09:19.441Z,100775.50
2022-12-25T07:11:46.019Z,100790.69
2022-12-25T07:14:24.128Z,100780.78
2022-12-25T07:16:51.409Z,100784.00
2022-12-25T07:19:18.137Z,100792.56
2022-12-25T07:21:44.777Z,100804.78
2022-12-25T07:24:11.405Z,100819.75
2022-12-25T07:26:38.015Z,100816.25
2022-12-25T07:29:04.711Z,100816.94
2022-12-25T07:31:31.404Z,100822.72
2022-12-25T07:33:58.041Z,100830.53
2022-12-25T07:36:24.653Z,100829.13
2022-12-25T07:38:51.280Z,100830.97
2022-12-25T07:41:18.052Z,100824.66
2022-12-25T07:43:44.659Z,100827.34
2022-12-25T07:46:11.518Z,100833.41
2022-12-25T07:48:38.998Z,100826.41
2022-12-25T07:51:07.804Z,100836.00
2022-12-25T07:53:36.315Z,100834.03
2022-12-25T07:56:06.381Z,100843.53
2022-12-25T07:58:34.045Z,100843.91
2022-12-25T08:01:10.528Z,100829.56
2022-12-25T08:03:38.140Z,100829.00
2022-12-25T08:06:07.424Z,100832.59
2022-12-25T08:08:34.869Z,100841.91
2022-12-25T08:11:01.579Z,100847.69
2022-12-25T08:13:33.061Z,100847.03
2022-12-25T08:16:01.707Z,100859.06
2022-12-25T08:18:30.406Z,100857.53
2022-12-25T08:21:02.509Z,100862.72
2022-12-25T08:23:29.135Z,100867.19
2022-12-25T08:26:05.402Z,100867.19
2022-12-25T08:28:34.555Z,100861.91
2022-12-25T08:31:18.241Z,100862.66
2022-12-25T08:33:46.155Z,100866.06
2022-12-25T08:36:15.508Z,100865.84
2022-12-25T08:38:42.331Z,100870.00
2022-12-25T08:41:10.097Z,100876.88
2022-12-25T08:43:37.069Z,100881.19
2022-12-25T08:46:03.926Z,100875.97
2022-12-25T08:48:30.661Z,100869.88
2022-12-25T08:50:57.722Z,100875.13
2022-12-25T08:53:24.645Z,100882.31
2022-12-25T08:56:01.953Z,100871.94
2022-12-25T08:58:28.767Z,100880.94
2022-12-25T09:00:56.275Z,100883.56
2022-12-25T09:03:23.411Z,100881.16
2022-12-25T09:05:50.518Z,100887.28
2022-12-25T09:08:17.333Z,100880.88
2022-12-25T09:10:43.990Z,100886.72
2022-12-25T09:13:10.612Z,100881.91
2022-12-25T09:15:38.552Z,100881.88
2022-12-25T09:18:05.945Z,100882.78
2022-12-25T09:20:32.701Z,100888.88
2022-12-25T09:22:59.330Z,100879.50
2022-12-25T09:25:26.250Z,100887.22
2022-12-25T09:27:53.081Z,100881.97
2022-12-25T09:30:19.721Z,100881.16
2022-12-25T09:32:46.313Z,100879.44
2022-12-25T09:35:13.155Z,100879.44
2022-12-25T09:37:39.913Z,100881.09
2022-12-25T09:40:07.549Z,100884.56
2022-12-25T09:42:34.198Z,100890.03
2022-12-25T09:45:05.070Z,100893.53
2022-12-25T09:47:35.826Z,100895.28
2022-12-25T09:50:12.750Z,100892.66
2022-12-25T09:52:51.702Z,100895.25
2022-12-25T09:55:24.646Z,100892.69
2022-12-25T09:57:56.819Z,100888.28
2022-12-25T10:00:26.170Z,100885.69
2022-12-25T10:03:20.633Z,100890.03
2022-12-25T10:06:08.748Z,100895.25
2022-12-25T10:08:47.363Z,100889.97
2022-12-25T10:11:31.981Z,100884.63
2022-12-25T10:14:18.872Z,100884.66
2022-12-25T10:16:51.421Z,100888.97
2022-12-25T10:20:02.133Z,100879.25
2022-12-25T10:22:38.133Z,100882.75
2022-12-25T10:25:07.612Z,100875.66
2022-12-25T10:27:38.024Z,100881.00
2022-12-25T10:30:20.110Z,100873.78
2022-12-25T10:32:48.071Z,100870.34
2022-12-25T10:35:17.588Z,100872.00
2022-12-25T10:37:49.005Z,100870.38
2022-12-25T10:40:31.290Z,100859.91
2022-12-25T10:43:21.093Z,100861.53
2022-12-25T10:45:49.266Z,100858.59
2022-12-25T10:48:30.686Z,100859.63
2022-12-25T10:50:57.350Z,100858.75
2022-12-25T10:53:37.271Z,100858.63
2022-12-25T10:56:06.093Z,100860.00
2022-12-25T10:58:34.096Z,100849.88
2022-12-25T11:01:06.987Z,100848.16
2022-12-25T11:03:40.173Z,100848.53
2022-12-25T11:06:22.085Z,100853.06
2022-12-25T11:08:53.832Z,100844.31
2022-12-25T11:11:21.080Z,100846.53
2022-12-25T11:13:51.405Z,100838.56
2022-12-25T11:16:31.194Z,100837.44
2022-12-25T11:18:59.288Z,100837.16
2022-12-25T11:21:32.742Z,100830.63
2022-12-25T11:24:06.485Z,100835.31
2022-12-25T11:26:47.821Z,100831.53
2022-12-25T11:29:24.622Z,100833.34
2022-12-25T11:31:53.710Z,100819.50
2022-12-25T11:34:37.225Z,100817.78
2022-12-25T11:37:05.496Z,100815.66
2022-12-25T11:39:35.648Z,100817.75
2022-12-25T11:42:29.589Z,100823.13
2022-12-25T11:45:18.595Z,100829.31
2022-12-25T11:47:54.604Z,100819.41
2022-12-25T11:50:28.748Z,100825.81
2022-12-25T11:52:55.598Z,100826.56
2022-12-25T11:55:41.848Z,100826.53
2022-12-25T11:58:41.989Z,100836.09
2022-12-25T12:01:43.549Z,100823.47
2022-12-25T12:04:42.666Z,100826.72
2022-12-25T12:07:32.902Z,100821.53
2022-12-25T12:10:11.294Z,100813.31
2022-12-25T12:12:56.349Z,100812.44
2022-12-25T12:15:42.458Z,100814.22
2022-12-25T12:18:28.027Z,100814.38
2022-12-25T12:21:04.774Z,100813.28
2022-12-25T12:23:35.910Z,100815.56
2022-12-25T12:26:03.530Z,100816.69
2022-12-25T12:28:43.949Z,100824.59
2022-12-25T12:31:10.690Z,100829.78
2022-12-25T12:33:55.046Z,100823.03
2022-12-25T12:36:34.645Z,100825.84
2022-12-25T12:39:02.488Z,100821.25
2022-12-25T12:42:01.271Z,100821.28
2022-12-25T12:44:32.810Z,100836.47
2022-12-25T12:46:59.533Z,100829.56
2022-12-25T12:49:30.989Z,100833.53
2022-12-25T12:52:33.589Z,100831.53
2022-12-25T12:55:07.089Z,100828.56
2022-12-25T12:57:36.047Z,100827.56
2022-12-25T13:00:09.793Z,100840.09
2022-12-25T13:02:43.548Z,100839.72
2022-12-25T13:05:27.748Z,100833.19
2022-12-25T13:08:16.296Z,100843.38
2022-12-25T13:10:49.605Z,100839.53
2022-12-25T13:13:24.828Z,100843.81
2022-12-25T13:15:52.203Z,100844.50
2022-12-25T13:18:19.531Z,100851.94
2022-12-25T13:20:54.306Z,100845.16
2022-12-25T13:23:32.877Z,100833.44
2022-12-25T13:26:06.026Z,100842.59
2022-12-25T13:28:36.895Z,100842.44
2022-12-25T13:31:20.217Z,100844.47
2022-12-25T13:34:27.412Z,100845.66
2022-12-25T13:36:54.744Z,100841.69
2022-12-25T13:39:22.801Z,100838.03
2022-12-25T13:41:52.103Z,100846.00
2022-12-25T13:44:22.756Z,100837.88
2022-12-25T13:46:49.427Z,100840.09
2022-12-25T13:49:19.243Z,100847.63
2022-12-25T13:51:46.684Z,100840.53
2022-12-25T13:54:14.947Z,100836.16
2022-12-25T13:56:53.672Z,100844.19
2022-12-25T13:59:23.325Z,100845.16
2022-12-25T14:01:51.922Z,100854.50
2022-12-25T14:04:23.854Z,100860.38
2022-12-25T14:06:52.230Z,100852.09
2022-12-25T14:09:19.699Z,100849.34
2022-12-25T14:11:50.582Z,100854.13
2022-12-25T14:14:25.132Z,100843.84
2022-12-25T14:16:56.453Z,100848.44
2022-12-25T14:19:34.083Z,100847.81
2022-12-25T14:22:11.919Z,100854.44
2022-12-25T14:24:40.259Z,100853.00
2022-12-25T14:27:21.465Z,100849.81
2022-12-25T14:29:51.477Z,100852.66
2022-12-25T14:32:24.327Z,100857.69
2022-12-25T14:34:55.742Z,100857.91
2022-12-25T14:37:27.598Z,100864.31
2022-12-25T14:40:00.528Z,100863.88
2022-12-25T14:42:30.623Z,100861.88
2022-12-25T14:45:00.312Z,100856.56
2022-12-25T14:47:27.752Z,100854.41
2022-12-25T14:49:54.604Z,100866.44
2022-12-25T14:52:27.946Z,100858.59
2022-12-25T14:55:01.553Z,100869.84
2022-12-25T14:57:36.799Z,100870.09
2022-12-25T15:00:23.744Z,100863.16
2022-12-25T15:02:52.217Z,100871.94
2022-12-25T15:05:26.751Z,100875.22
2022-12-25T15:08:08.753Z,100877.13
2022-12-25T15:13:23.126Z,100874.66
2022-12-25T15:16:06.618Z,100873.84
2022-12-25T15:18:38.894Z,100872.09
2022-12-25T15:21:05.658Z,100871.31
2022-12-25T15:23:32.321Z,100881.72
2022-12-25T15:25:58.992Z,100875.63
2022-12-25T15:28:25.621Z,100871.22
2022-12-25T15:30:52.307Z,100873.22
2022-12-25T15:33:19.334Z,100880.16
2022-12-25T15:35:46.048Z,100879.16
2022-12-25T15:38:13.541Z,100871.31
2022-12-25T15:40:40.982Z,100871.59
2022-12-25T15:43:30.929Z,100860.72
2022-12-25T15:45:57.952Z,100872.22
2022-12-25T15:48:24.584Z,100877.47
2022-12-25T15:50:51.168Z,100881.03
2022-12-25T15:53:17.799Z,100883.84
2022-12-25T15:55:44.454Z,100881.28
2022-12-25T15:58:14.044Z,100882.03
2022-12-25T16:00:40.628Z,100874.19
2022-12-25T16:03:07.508Z,100878.41
2022-12-25T16:05:34.451Z,100878.50
2022-12-25T16:08:01.055Z,100879.38
2022-12-25T16:10:29.193Z,100875.75
2022-12-25T16:12:59.211Z,100881.09
2022-12-25T16:15:25.799Z,100876.66
2022-12-25T16:17:52.440Z,100876.44
2022-12-25T16:20:19.019Z,100867.78
2022-12-25T16:22:45.626Z,100868.75
2022-12-25T16:25:17.914Z,100866.16
2022-12-25T16:27:44.582Z,100868.91
2022-12-25T16:30:13.955Z,100859.16
2022-12-25T16:32:40.660Z,100866.19
2022-12-25T16:35:07.549Z,100863.56
2022-12-25T16:37:34.917Z,100859.34
2022-12-25T16:40:02.414Z,100850.59
2022-12-25T16:42:29.065Z,100849.72
2022-12-25T16:44:55.637Z,100839.28
2022-12-25T16:47:22.319Z,100846.06
2022-12-25T16:49:48.900Z,100842.63
2022-12-25T16:52:15.500Z,100842.72
2022-12-25T16:54:42.099Z,100841.25
2022-12-25T16:57:08.711Z,100845.56
2022-12-25T16:59:35.338Z,100836.78
2022-12-25T17:02:02.236Z,100845.47
2022-12-25T17:04:28.937Z,100843.88
2022-12-25T17:06:56.045Z,100833.41
2022-12-25T17:09:22.659Z,100840.41
2022-12-25T17:11:49.246Z,100841.28
2022-12-25T17:14:16.133Z,100840.28
2022-12-25T17:16:42.850Z,100840.22
2022-12-25T17:19:18.939Z,100838.59
2022-12-25T17:21:46.221Z,100839.41
2022-12-25T17:24:14.034Z,100846.34
2022-12-25T17:26:40.919Z,100849.78
2022-12-25T17:29:08.475Z,100850.69
2022-12-25T17:31:35.277Z,100848.19
2022-12-25T17:34:02.782Z,100849.03
2022-12-25T17:36:30.394Z,100845.66
2022-12-25T17:38:59.334Z,100830.59
2022-12-25T17:41:26.056Z,100821.84
2022-12-25T17:43:52.717Z,100812.22
2022-12-25T17:46:23.143Z,100804.44
2022-12-25T17:48:50.646Z,100802.59
2022-12-25T17:51:22.007Z,100800.06
2022-12-25T17:53:52.001Z,100802.84
2022-12-25T17:56:19.956Z,100809.88
2022-12-25T17:58:51.669Z,100810.75
2022-12-25T18:01:19.106Z,100814.28
2022-12-25T18:03:46.241Z,100816.88
2022-12-25T18:06:15.999Z,100814.22
2022-12-25T18:08:44.431Z,100815.03
2022-12-25T18:11:17.264Z,100822.84
2022-12-25T18:13:46.363Z,100823.78
2022-12-25T18:16:13.717Z,100816.06
2022-12-25T18:18:42.379Z,100810.88
2022-12-25T18:21:11.988Z,100822.28
2022-12-25T18:23:39.439Z,100820.44
2022-12-25T18:26:08.869Z,100821.38
2022-12-25T18:28:35.815Z,100817.06
2022-12-25T18:31:08.595Z,100818.00
2022-12-25T18:33:35.341Z,100814.44
2022-12-25T18:36:01.945Z,100804.69
2022-12-25T18:38:28.707Z,100800.25
2022-12-25T18:40:55.482Z,100802.91
2022-12-25T18:43:22.113Z,100800.25
2022-12-25T18:46:09.106Z,100798.53
2022-12-25T18:48:36.150Z,100802.16
2022-12-25T18:51:06.279Z,100801.19
2022-12-25T18:53:33.536Z,100796.84
2022-12-25T18:56:12.803Z,100802.91
2022-12-25T18:58:39.586Z,100805.56
2022-12-25T19:01:13.207Z,100805.47
2022-12-25T19:03:39.944Z,100802.19
2022-12-25T19:06:06.853Z,100798.69
2022-12-25T19:08:33.509Z,100795.09
2022-12-25T19:11:00.138Z,100803.78
2022-12-25T19:13:26.771Z,100793.28
2022-12-25T19:15:58.232Z,100788.03
2022-12-25T19:18:25.051Z,100784.75
2022-12-25T19:20:51.631Z,100781.19
2022-12-25T19:23:18.495Z,100779.41
2022-12-25T19:25:45.194Z,100787.13
2022-12-25T19:28:11.799Z,100787.13
2022-12-25T19:30:38.599Z,100777.44
2022-12-25T19:33:05.445Z,100788.03
2022-12-25T19:35:32.057Z,100779.31
2022-12-25T19:37:58.651Z,100781.78
2022-12-25T19:40:25.351Z,100774.06
2022-12-25T19:42:53.149Z,100785.41
2022-12-25T19:45:19.823Z,100789.78
2022-12-25T19:47:46.469Z,100795.03
2022-12-25T19:50:13.061Z,100796.94
2022-12-25T19:52:39.701Z,100797.06
2022-12-25T19:55:06.908Z,100785.63
2022-12-25T19:57:33.509Z,100781.34
2022-12-25T20:00:00.146Z,100776.78
2022-12-25T20:02:26.883Z,100773.34
2022-12-25T20:04:53.731Z,100766.41
2022-12-25T20:07:20.299Z,100758.63
2022-12-25T20:09:46.915Z,100749.75
2022-12-25T20:12:13.558Z,100728.53
2022-12-25T20:14:40.194Z,100721.66
2022-12-25T20:17:12.196Z,100721.63
2022-12-25T20:19:42.473Z,100718.09
2022-12-25T20:22:09.068Z,100721.53
2022-12-25T20:24:35.701Z,100725.88
2022-12-25T20:27:02.312Z,100735.63
2022-12-25T20:29:28.969Z,100739.19
2022-12-25T20:31:55.660Z,100743.63
2022-12-25T20:34:22.316Z,100751.28
2022-12-25T20:36:48.923Z,100742.28
2022-12-25T20:39:15.561Z,100739.16
2022-12-25T20:41:42.323Z,100730.69
2022-12-25T20:44:09.290Z,100734.25
2022-12-25T20:46:36.687Z,100726.47
2022-12-25T20:49:04.098Z,100736.97
2022-12-25T20:51:30.753Z,100739.50
2022-12-25T20:53:57.760Z,100751.69
2022-12-25T20:56:26.868Z,100751.56
2022-12-25T20:58:55.768Z,100748.28
2022-12-25T21:01:22.701Z,100741.25
2022-12-25T21:03:50.027Z,100730.91
2022-12-25T21:06:16.868Z,100738.84
2022-12-25T21:08:43.546Z,100748.50
2022-12-25T21:11:11.042Z,100746.72
2022-12-25T21:13:39.671Z,100741.25
2022-12-25T21:16:12.190Z,100735.25
2022-12-25T21:18:38.982Z,100727.31
2022-12-25T21:21:06.323Z,100722.03
2022-12-25T21:23:34.987Z,100714.16
2022-12-25T21:26:16.609Z,100716.63
2022-12-25T21:28:43.370Z,100724.41
2022-12-25T21:31:10.583Z,100737.75
2022-12-25T21:33:37.460Z,100743.09
2022-12-25T21:36:10.830Z,100737.75
2022-12-25T21:38:38.910Z,100735.34
2022-12-25T21:41:10.837Z,100725.63
2022-12-25T21:43:38.851Z,100722.06
2022-12-25T21:46:10.556Z,100721.47
2022-12-25T21:48:37.892Z,100724.84
2022-12-25T21:51:08.156Z,100723.91
2022-12-25T21:53:34.736Z,100713.38
2022-12-25T21:56:01.590Z,100719.47
2022-12-25T21:58:28.793Z,100722.03
2022-12-25T22:00:55.519Z,100721.28
2022-12-25T22:03:23.747Z,100723.72
2022-12-25T22:05:50.435Z,100730.53
2022-12-25T22:08:17.072Z,100735.00
2022-12-25T22:10:43.707Z,100742.81
2022-12-25T22:13:10.376Z,100743.03
2022-12-25T22:15:37.199Z,100735.91
2022-12-25T22:18:03.935Z,100737.59
2022-12-25T22:20:36.685Z,100736.81
2022-12-25T22:23:04.113Z,100740.13
2022-12-25T22:25:30.720Z,100730.75
2022-12-25T22:27:57.491Z,100730.69
2022-12-25T22:30:26.455Z,100731.53
2022-12-25T22:32:53.452Z,100721.91
2022-12-25T22:35:20.786Z,100714.19
2022-12-25T22:37:47.612Z,100717.50
2022-12-25T22:40:16.623Z,100723.66
2022-12-25T22:42:43.386Z,100726.25
2022-12-25T22:45:10.509Z,100733.19
2022-12-25T22:47:37.185Z,100719.31
2022-12-25T22:50:04.571Z,100727.31
2022-12-25T22:52:31.255Z,100721.09
2022-12-25T22:54:57.839Z,100735.97
2022-12-25T22:57:24.453Z,100737.72
2022-12-25T22:59:54.168Z,100731.56
2022-12-25T23:02:21.293Z,100723.75
2022-12-25T23:04:48.098Z,100716.81
2022-12-25T23:07:14.748Z,100713.25
2022-12-25T23:09:42.635Z,100711.53
2022-12-25T23:12:09.931Z,100715.03
2022-12-25T23:14:36.518Z,100711.34
2022-12-25T23:17:03.156Z,100715.97
2022-12-25T23:19:29.889Z,100713.31
2022-12-25T23:21:56.536Z,100716.81
2022-12-25T23:24:23.305Z,100719.44
2022-12-25T23:26:49.883Z,100716.03
2022-12-25T23:29:16.544Z,100712.41
2022-12-25T23:31:43.689Z,100704.66
2022-12-25T23:34:10.663Z,100713.13
2022-12-25T23:36:37.376Z,100715.88
2022-12-25T23:39:09.685Z,100708.03
2022-12-25T23:41:38.926Z,100702.84
2022-12-25T23:44:05.629Z,100702.78
2022-12-25T23:46:32.335Z,100687.88
2022-12-25T23:48:58.997Z,100691.22
2022-12-25T23:51:25.757Z,100691.31
2022-12-25T23:53:52.392Z,100687.00
2022-12-25T23:56:19.030Z,100680.78
2022-12-25T23:58:45.655Z,100688.78
